Time;durP1;ratioP1;P1;durP2;ratioP2;P2;SDS_P1;SDS_P2;PMS_P1;PMS_P2;Temp;Humidity;BMP_temperature;BMP_pressure;BME280_temperature;BME280_humidity;BME280_pressure;Samples;Min_cycle;Max_cycle;Signal;HPM_P1;HPM_P2
2021/03/17 00:02:11;;;;;;;38.90;14.27;;;5.70;99.90;;;;;;5089449;28;20028;-53
2021/03/17 00:04:37;;;;;;;34.90;15.68;;;5.60;99.90;;;;;;5088610;28;20032;-53
2021/03/17 00:07:03;;;;;;;39.85;17.05;;;5.60;99.90;;;;;;5089205;28;20020;-55
2021/03/17 00:09:29;;;;;;;39.55;16.15;;;5.60;99.90;;;;;;5089411;28;20020;-54
2021/03/17 00:11:54;;;;;;;37.88;16.67;;;5.60;99.90;;;;;;5089748;28;20032;-55
2021/03/17 00:14:20;;;;;;;39.78;17.48;;;5.50;99.90;;;;;;5083215;28;20115;-53
2021/03/17 00:16:45;;;;;;;46.97;19.50;;;5.50;99.90;;;;;;5089732;28;20028;-53
2021/03/17 00:19:11;;;;;;;39.65;16.75;;;5.50;99.90;;;;;;5089630;28;20020;-52
2021/03/17 00:21:37;;;;;;;44.17;17.20;;;5.60;99.90;;;;;;5089181;28;20393;-56
2021/03/17 00:24:03;;;;;;;50.63;20.50;;;5.60;99.90;;;;;;5089766;28;20027;-57
2021/03/17 00:26:29;;;;;;;49.78;18.90;;;5.60;99.90;;;;;;5089097;28;20028;-56
2021/03/17 00:28:54;;;;;;;44.20;18.88;;;5.60;99.90;;;;;;5089580;28;20039;-57
2021/03/17 00:31:20;;;;;;;48.60;19.30;;;5.60;99.90;;;;;;5087922;28;20397;-59
2021/03/17 00:33:45;;;;;;;40.90;17.92;;;5.50;99.90;;;;;;5089158;28;20394;-58
2021/03/17 00:36:11;;;;;;;38.33;18.52;;;5.50;99.90;;;;;;5089165;28;20032;-55
2021/03/17 00:38:36;;;;;;;44.50;16.58;;;5.60;99.90;;;;;;5089440;28;20040;-58
2021/03/17 00:41:02;;;;;;;35.75;16.92;;;5.50;99.90;;;;;;5088664;28;20067;-54
2021/03/17 00:43:28;;;;;;;33.45;14.75;;;5.60;99.90;;;;;;5089863;28;20047;-56
2021/03/17 00:45:53;;;;;;;30.80;15.35;;;5.50;99.90;;;;;;5088981;28;20066;-58
2021/03/17 00:48:19;;;;;;;31.92;14.02;;;5.50;99.90;;;;;;5090377;28;20024;-57
2021/03/17 00:50:44;;;;;;;32.65;15.18;;;5.50;99.90;;;;;;5087171;28;20470;-57
2021/03/17 00:53:10;;;;;;;30.50;15.25;;;5.60;99.90;;;;;;5089654;28;20028;-54
2021/03/17 00:55:36;;;;;;;36.58;14.88;;;5.50;99.90;;;;;;5088741;28;20031;-55
2021/03/17 00:58:02;;;;;;;35.78;15.65;;;5.50;99.90;;;;;;5104765;22;20063;-56
2021/03/17 01:00:27;;;;;;;33.40;15.65;;;5.50;99.90;;;;;;5067890;28;20020;-53
2021/03/17 01:02:53;;;;;;;36.30;15.80;;;5.50;99.90;;;;;;5069815;28;20546;-55
2021/03/17 01:05:18;;;;;;;37.72;16.00;;;5.50;99.90;;;;;;5071032;28;20115;-55
2021/03/17 01:07:44;;;;;;;43.70;17.33;;;5.40;99.90;;;;;;5052865;28;20116;-56
2021/03/17 01:10:14;;;;;;;37.88;18.33;;;5.40;99.90;;;;;;5067950;28;20375;-54
2021/03/17 01:12:41;;;;;;;40.40;17.60;;;5.50;99.90;;;;;;5068961;28;20036;-54
2021/03/17 01:15:08;;;;;;;39.88;17.50;;;5.40;99.90;;;;;;5068147;28;20502;-57
2021/03/17 01:17:34;;;;;;;35.05;17.08;;;5.40;99.90;;;;;;5070328;28;20041;-56
2021/03/17 01:20:00;;;;;;;35.00;16.63;;;5.50;99.90;;;;;;5072079;28;20077;-58
2021/03/17 01:22:25;;;;;;;37.10;17.90;;;5.50;99.90;;;;;;5072422;28;20179;-56
2021/03/17 01:24:51;;;;;;;32.50;16.17;;;5.50;99.90;;;;;;5072445;28;20028;-58
2021/03/17 01:27:16;;;;;;;37.20;17.50;;;5.40;99.90;;;;;;5072613;28;20272;-57
2021/03/17 01:29:42;;;;;;;41.38;19.20;;;5.40;99.90;;;;;;5067239;28;20068;-58
2021/03/17 01:32:07;;;;;;;38.90;17.30;;;5.40;99.90;;;;;;5072597;28;20025;-57
2021/03/17 01:34:33;;;;;;;36.00;16.70;;;5.40;99.90;;;;;;5071959;28;20032;-58
2021/03/17 01:36:58;;;;;;;37.00;17.08;;;5.40;99.90;;;;;;5072083;28;20033;-58
2021/03/17 01:39:24;;;;;;;50.38;17.52;;;5.40;99.90;;;;;;5072462;28;20024;-58
2021/03/17 01:41:50;;;;;;;44.05;18.27;;;5.40;99.90;;;;;;5072208;28;20390;-57
2021/03/17 01:44:15;;;;;;;40.33;18.67;;;5.30;99.90;;;;;;5071172;28;20092;-57
2021/03/17 01:46:41;;;;;;;41.58;17.67;;;5.30;99.90;;;;;;5072009;28;20037;-57
2021/03/17 01:49:06;;;;;;;39.38;18.10;;;5.30;99.90;;;;;;5072233;28;20331;-56
2021/03/17 01:51:32;;;;;;;47.25;18.58;;;5.30;99.90;;;;;;5072281;28;20028;-57
2021/03/17 01:53:59;;;;;;;43.67;18.70;;;5.30;99.90;;;;;;5071505;28;20108;-54
2021/03/17 01:56:25;;;;;;;42.08;17.65;;;5.30;99.90;;;;;;5065989;28;20036;-58
2021/03/17 01:58:50;;;;;;;46.47;21.52;;;5.30;99.90;;;;;;5070036;28;20521;-56
2021/03/17 02:01:16;;;;;;;39.45;18.33;;;5.40;99.90;;;;;;5070916;28;20447;-56
2021/03/17 02:03:42;;;;;;;41.08;19.30;;;5.40;99.90;;;;;;5066806;28;20021;-58
2021/03/17 02:06:08;;;;;;;39.75;19.77;;;5.30;99.90;;;;;;5072070;28;20044;-54
2021/03/17 02:08:36;;;;;;;39.67;18.70;;;5.40;99.90;;;;;;5072059;28;20470;-55
2021/03/17 02:11:03;;;;;;;46.63;19.45;;;5.40;99.90;;;;;;5071483;28;20041;-55
2021/03/17 02:13:46;;;;;;;35.72;18.40;;;5.40;99.90;;;;;;5072060;28;20051;-56
2021/03/17 02:16:29;;;;;;;40.00;18.95;;;5.30;99.90;;;;;;5071759;28;20032;-54
2021/03/17 02:19:12;;;;;;;43.17;20.00;;;5.40;99.90;;;;;;5070451;28;20020;-58
2021/03/17 02:21:59;;;;;;;36.40;18.95;;;5.30;99.90;;;;;;5065503;28;20031;-56
2021/03/17 02:24:28;;;;;;;33.40;17.00;;;5.30;99.90;;;;;;5071861;28;20029;-54
2021/03/17 02:27:28;;;;;;;32.90;17.10;;;5.30;99.90;;;;;;5070415;28;21472;-55
2021/03/17 02:30:31;;;;;;;34.25;18.15;;;5.30;99.90;;;;;;5065387;28;20077;-57
2021/03/17 02:33:31;;;;;;;41.50;18.40;;;5.30;99.90;;;;;;5070879;28;20516;-55
2021/03/17 02:36:05;;;;;;;38.60;19.45;;;5.30;99.90;;;;;;5071443;28;20398;-55
2021/03/17 02:38:31;;;;;;;;;;;5.30;99.90;;;;;;5072706;28;20117;-56
2021/03/17 02:40:59;;;;;;;34.55;17.92;;;5.30;99.90;;;;;;5071752;28;20386;-58
2021/03/17 02:43:30;;;;;;;37.25;19.50;;;5.30;99.90;;;;;;5071546;28;20024;-58
2021/03/17 02:46:00;;;;;;;40.38;20.88;;;5.40;99.90;;;;;;5071407;28;20036;-59
2021/03/17 02:48:31;;;;;;;37.40;18.98;;;5.40;99.90;;;;;;5068358;28;20032;-57
2021/03/17 02:51:02;;;;;;;43.20;21.20;;;5.40;99.90;;;;;;5068416;28;20267;-55
2021/03/17 02:53:28;;;;;;;43.45;20.65;;;5.30;99.90;;;;;;5069671;28;20029;-57
2021/03/17 02:56:14;;;;;;;45.15;21.33;;;5.30;99.90;;;;;;5068599;28;20119;-54
2021/03/17 02:58:44;;;;;;;37.30;20.33;;;5.30;99.90;;;;;;5070731;28;20043;-53
2021/03/17 03:01:13;;;;;;;43.15;20.73;;;5.40;99.90;;;;;;5070250;28;20012;-56
2021/03/17 03:03:39;;;;;;;35.30;18.77;;;5.30;99.90;;;;;;5068470;28;20401;-55
2021/03/17 03:06:06;;;;;;;35.58;17.52;;;5.30;99.90;;;;;;5070652;28;20060;-54
2021/03/17 03:08:34;;;;;;;36.08;18.42;;;5.20;99.90;;;;;;5069709;28;20043;-53
2021/03/17 03:11:01;;;;;;;39.38;19.13;;;5.20;99.90;;;;;;5068552;28;20036;-54
2021/03/17 03:13:27;;;;;;;37.53;21.67;;;5.20;99.90;;;;;;5070651;28;20040;-53
2021/03/17 03:15:57;;;;;;;40.50;20.50;;;5.20;99.90;;;;;;5069900;28;20024;-54
2021/03/17 03:18:24;;;;;;;45.30;22.77;;;5.20;99.90;;;;;;5070765;28;20033;-55
2021/03/17 03:20:52;;;;;;;43.70;20.92;;;5.20;99.90;;;;;;5070249;28;20034;-53
2021/03/17 03:23:19;;;;;;;47.53;23.23;;;5.20;99.90;;;;;;5068345;28;20024;-54
2021/03/17 03:25:46;;;;;;;45.50;24.58;;;5.20;99.90;;;;;;5070462;28;20024;-53
2021/03/17 03:28:14;;;;;;;49.47;24.25;;;5.20;99.90;;;;;;5069595;28;20024;-55
2021/03/17 03:30:44;;;;;;;50.83;24.73;;;5.10;99.90;;;;;;5070251;28;20088;-54
2021/03/17 03:33:10;;;;;;;52.20;24.45;;;5.10;99.90;;;;;;5070381;28;20016;-54
2021/03/17 03:35:36;;;;;;;44.25;24.05;;;5.20;99.90;;;;;;5069867;28;20028;-54
2021/03/17 03:38:07;;;;;;;56.03;24.77;;;5.20;99.90;;;;;;5062940;28;20174;-56
2021/03/17 03:40:33;;;;;;;54.30;25.98;;;5.10;99.90;;;;;;5067959;28;20502;-54
2021/03/17 03:42:59;;;;;;;56.70;25.50;;;5.10;99.90;;;;;;5069445;28;20085;-54
2021/03/17 03:45:26;;;;;;;50.85;25.75;;;5.10;99.90;;;;;;5069582;28;20036;-55
2021/03/17 03:47:51;;;;;;;51.22;24.55;;;5.10;99.90;;;;;;5063483;28;20040;-53
2021/03/17 03:50:20;;;;;;;48.30;23.98;;;5.10;99.90;;;;;;5069402;28;20033;-54
2021/03/17 03:53:14;;;;;;;49.38;24.23;;;5.10;99.90;;;;;;5066412;28;20029;-54
2021/03/17 03:55:45;;;;;;;46.83;22.20;;;5.00;99.90;;;;;;5069967;28;20032;-55
2021/03/17 03:58:14;;;;;;;42.58;21.23;;;5.10;99.90;;;;;;5065133;28;20098;-58
2021/03/17 04:00:42;;;;;;;44.95;22.00;;;5.00;99.90;;;;;;5069583;28;20027;-55
2021/03/17 04:03:11;;;;;;;39.38;19.02;;;5.00;99.90;;;;;;5068657;28;20746;-55
2021/03/17 04:05:38;;;;;;;37.25;18.88;;;5.00;99.90;;;;;;5065379;28;20028;-54
2021/03/17 04:08:11;;;;;;;30.88;16.70;;;5.00;99.90;;;;;;5069853;28;20013;-56
2021/03/17 04:10:38;;;;;;;30.75;16.30;;;5.00;99.90;;;;;;5062759;28;20246;-55
2021/03/17 04:13:06;;;;;;;27.20;14.18;;;4.90;99.90;;;;;;5066533;28;20016;-57
2021/03/17 04:15:34;;;;;;;28.40;14.23;;;5.00;99.90;;;;;;5063249;28;20020;-56
2021/03/17 04:18:12;;;;;;;25.35;13.75;;;4.90;99.90;;;;;;5069314;28;20024;-56
2021/03/17 04:20:42;;;;;;;20.13;11.30;;;4.90;99.90;;;;;;5069926;28;20090;-53
2021/03/17 04:23:10;;;;;;;19.85;11.55;;;4.90;99.90;;;;;;5069794;28;20746;-58
2021/03/17 04:25:37;;;;;;;18.70;10.27;;;4.90;99.90;;;;;;5068972;28;20047;-57
2021/03/17 04:28:05;;;;;;;19.58;9.90;;;4.90;99.90;;;;;;5069752;28;20028;-57
2021/03/17 04:30:32;;;;;;;16.30;9.65;;;4.90;99.90;;;;;;5069490;28;20025;-58
2021/03/17 04:32:59;;;;;;;17.45;10.20;;;4.90;99.90;;;;;;5068655;28;20058;-56
2021/03/17 04:35:25;;;;;;;16.45;9.88;;;4.80;99.90;;;;;;5070032;28;20104;-54
2021/03/17 04:37:54;;;;;;;15.43;9.30;;;4.80;99.90;;;;;;5068129;28;20063;-57
2021/03/17 04:40:20;;;;;;;16.98;10.32;;;4.80;99.90;;;;;;5068029;28;20031;-58
2021/03/17 04:42:46;;;;;;;21.90;10.88;;;4.80;99.90;;;;;;5070144;28;20359;-53
2021/03/17 04:45:14;;;;;;;17.17;9.60;;;4.80;99.90;;;;;;5069210;28;20116;-57
2021/03/17 04:47:41;;;;;;;18.25;9.70;;;4.80;99.90;;;;;;5069321;28;20086;-57
2021/03/17 04:50:10;;;;;;;14.88;8.70;;;4.80;99.90;;;;;;5068833;28;20104;-56
2021/03/17 04:52:39;;;;;;;14.82;9.38;;;4.80;99.90;;;;;;5072253;28;20029;-58
2021/03/17 04:55:06;;;;;;;16.33;9.27;;;4.70;99.90;;;;;;5073612;28;20050;-57
2021/03/17 04:57:36;;;;;;;16.55;9.35;;;4.70;99.90;;;;;;5072314;28;20119;-56
2021/03/17 05:00:12;;;;;;;19.83;10.02;;;4.80;99.90;;;;;;5073654;28;20100;-57
2021/03/17 05:02:44;;;;;;;15.90;9.57;;;4.80;99.90;;;;;;5070384;28;20036;-56
2021/03/17 05:05:11;;;;;;;15.50;10.27;;;4.70;99.90;;;;;;5073135;28;20073;-58
2021/03/17 05:07:40;;;;;;;13.77;9.35;;;4.80;99.90;;;;;;5073203;28;20089;-53
2021/03/17 05:10:08;;;;;;;13.38;9.27;;;4.80;99.90;;;;;;5073082;28;20097;-57
2021/03/17 05:12:38;;;;;;;15.95;9.50;;;4.80;99.90;;;;;;5066387;28;20323;-53
2021/03/17 05:15:05;;;;;;;15.88;9.02;;;4.80;99.90;;;;;;5066833;28;20062;-58
2021/03/17 05:17:33;;;;;;;11.88;8.10;;;4.70;99.90;;;;;;5068655;28;20102;-56
2021/03/17 05:19:59;;;;;;;11.05;7.00;;;4.70;99.90;;;;;;5064824;28;20144;-56
2021/03/17 05:22:25;;;;;;;12.23;7.90;;;4.60;99.90;;;;;;5072546;28;20449;-53
2021/03/17 05:24:51;;;;;;;13.70;8.23;;;4.60;99.90;;;;;;5073403;28;20131;-54
2021/03/17 05:27:20;;;;;;;10.27;7.35;;;4.60;99.90;;;;;;5072484;28;20101;-58
2021/03/17 05:29:48;;;;;;;11.25;7.80;;;4.60;99.90;;;;;;5072669;28;20051;-55
2021/03/17 05:32:15;;;;;;;11.43;7.55;;;4.60;99.90;;;;;;5072475;28;20040;-57
2021/03/17 05:35:04;;;;;;;9.77;6.90;;;4.60;99.90;;;;;;5072656;28;20032;-55
2021/03/17 05:37:30;;;;;;;11.73;7.35;;;4.60;99.90;;;;;;5067912;28;20036;-55
2021/03/17 05:39:56;;;;;;;12.15;7.75;;;4.50;99.90;;;;;;5072422;28;20529;-54
2021/03/17 05:42:23;;;;;;;13.07;8.38;;;4.50;99.90;;;;;;5071042;28;20052;-58
2021/03/17 05:44:51;;;;;;;14.18;8.60;;;4.50;99.90;;;;;;5065337;28;20043;-56
2021/03/17 05:47:18;;;;;;;13.32;8.10;;;4.40;99.90;;;;;;5070370;28;20059;-54
2021/03/17 05:49:44;;;;;;;11.85;8.13;;;4.40;99.90;;;;;;5070525;28;20056;-57
2021/03/17 05:52:10;;;;;;;13.30;8.23;;;4.50;99.90;;;;;;5068615;28;20028;-53
2021/03/17 05:54:36;;;;;;;14.13;8.55;;;4.50;99.90;;;;;;5070531;28;20500;-53
2021/03/17 05:57:03;;;;;;;12.55;8.27;;;4.50;99.90;;;;;;5071597;28;20029;-54
2021/03/17 05:59:30;;;;;;;12.40;8.55;;;4.50;99.90;;;;;;5065468;28;20043;-51
2021/03/17 06:01:56;;;;;;;15.00;8.93;;;4.50;99.90;;;;;;5068391;28;20021;-55
2021/03/17 06:04:25;;;;;;;14.70;9.25;;;4.50;99.90;;;;;;5069840;28;20471;-52
2021/03/17 06:06:55;;;;;;;14.70;9.05;;;4.50;99.90;;;;;;5069889;28;20034;-51
2021/03/17 06:09:22;;;;;;;15.63;10.85;;;4.50;99.90;;;;;;5070595;28;20027;-52
2021/03/17 06:11:50;;;;;;;13.95;10.20;;;4.40;99.90;;;;;;5070646;28;20207;-56
2021/03/17 06:14:20;;;;;;;15.07;9.73;;;4.40;99.90;;;;;;5066814;28;20039;-52
2021/03/17 06:16:48;;;;;;;18.02;10.05;;;4.50;99.90;;;;;;5068694;28;20028;-51
2021/03/17 06:19:16;;;;;;;14.05;9.13;;;4.50;99.90;;;;;;5071558;28;20017;-51
2021/03/17 06:21:42;;;;;;;13.98;9.13;;;4.50;99.90;;;;;;5069402;28;20472;-51
2021/03/17 06:24:10;;;;;;;17.70;10.95;;;4.50;99.90;;;;;;5062475;28;20025;-54
2021/03/17 06:26:38;;;;;;;15.00;9.73;;;4.50;99.90;;;;;;5066243;28;20068;-52
2021/03/17 06:29:04;;;;;;;15.38;10.25;;;4.50;99.90;;;;;;5072367;28;20032;-55
2021/03/17 06:31:30;;;;;;;16.13;10.40;;;4.50;99.90;;;;;;5071368;28;20032;-51
2021/03/17 06:33:57;;;;;;;17.42;10.50;;;4.60;99.90;;;;;;5070927;28;20054;-51
2021/03/17 06:36:25;;;;;;;17.80;11.02;;;4.60;99.90;;;;;;5071178;28;20043;-53
2021/03/17 06:39:06;;;;;;;17.80;11.98;;;4.60;99.90;;;;;;5069491;28;20032;-55
2021/03/17 06:41:53;;;;;;;17.40;11.55;;;4.60;99.90;;;;;;5070046;28;20493;-51
2021/03/17 06:44:21;;;;;;;20.65;12.68;;;4.60;99.90;;;;;;5067414;28;20103;-52
2021/03/17 06:47:12;;;;;;;18.33;11.35;;;4.60;99.90;;;;;;5071404;28;20406;-51
2021/03/17 06:49:43;;;;;;;20.45;12.82;;;4.60;99.90;;;;;;5069900;28;20459;-52
2021/03/17 06:52:29;;;;;;;20.80;13.25;;;4.70;99.90;;;;;;5070760;28;20123;-51
2021/03/17 06:55:14;;;;;;;20.98;12.63;;;4.70;99.90;;;;;;5070379;28;20100;-51
2021/03/17 06:57:53;;;;;;;19.92;12.40;;;4.70;99.90;;;;;;5069437;28;20166;-54
2021/03/17 07:00:25;;;;;;;18.30;12.20;;;4.70;99.90;;;;;;5068473;28;20025;-52
2021/03/17 07:02:53;;;;;;;20.45;12.60;;;4.70;99.90;;;;;;5070362;28;20027;-52
2021/03/17 07:05:20;;;;;;;21.88;12.07;;;4.70;99.90;;;;;;5067218;28;20116;-51
2021/03/17 07:07:50;;;;;;;18.90;12.27;;;4.80;99.90;;;;;;5071533;28;20394;-52
2021/03/17 07:10:45;;;;;;;20.27;11.70;;;4.80;99.90;;;;;;5068792;28;20091;-51
2021/03/17 07:13:14;;;;;;;20.13;11.80;;;4.80;99.90;;;;;;5070447;28;20032;-52
2021/03/17 07:15:41;;;;;;;17.92;11.13;;;4.80;99.90;;;;;;5063376;28;20043;-53
2021/03/17 07:18:23;;;;;;;20.50;12.90;;;4.80;99.90;;;;;;5064065;28;20033;-55
2021/03/17 07:20:49;;;;;;;20.63;11.93;;;4.80;99.90;;;;;;5067231;28;20506;-52
2021/03/17 07:23:24;;;;;;;19.95;12.18;;;4.80;99.90;;;;;;5070960;28;20020;-51
2021/03/17 07:26:17;;;;;;;18.95;11.18;;;4.90;99.90;;;;;;5068679;28;20025;-51
2021/03/17 07:28:52;;;;;;;15.80;10.30;;;4.90;99.90;;;;;;5070480;28;20024;-52
2021/03/17 07:31:29;;;;;;;18.90;11.00;;;4.90;99.90;;;;;;5069874;28;20383;-51
2021/03/17 07:34:07;;;;;;;17.90;11.77;;;4.90;99.90;;;;;;5070100;28;20016;-51
2021/03/17 07:36:54;;;;;;;18.45;11.55;;;4.90;99.90;;;;;;5066501;28;20029;-51
2021/03/17 07:39:26;;;;;;;15.52;10.32;;;4.90;99.90;;;;;;5064423;28;20031;-53
2021/03/17 07:41:54;;;;;;;15.90;9.90;;;5.00;99.90;;;;;;5066651;28;20017;-52
2021/03/17 07:44:20;;;;;;;18.20;10.63;;;5.00;99.90;;;;;;5066929;28;20025;-51
2021/03/17 07:46:49;;;;;;;16.67;9.55;;;5.00;99.90;;;;;;5065302;28;20059;-53
2021/03/17 07:49:15;;;;;;;16.85;10.50;;;5.00;99.90;;;;;;5069829;28;20032;-51
2021/03/17 07:51:48;;;;;;;17.10;9.75;;;5.00;99.90;;;;;;5067317;28;20133;-50
2021/03/17 07:54:22;;;;;;;17.15;10.88;;;5.00;99.90;;;;;;5070164;28;20032;-49
2021/03/17 07:56:49;;;;;;;16.98;9.73;;;5.00;99.90;;;;;;5068585;28;20024;-52
2021/03/17 07:59:17;;;;;;;16.48;10.55;;;5.00;99.90;;;;;;5069346;28;20036;-51
2021/03/17 08:01:44;;;;;;;14.75;10.07;;;5.10;99.90;;;;;;5069498;28;20039;-54
2021/03/17 08:04:10;;;;;;;16.08;9.82;;;5.10;99.90;;;;;;5069429;28;20462;-52
2021/03/17 08:06:36;;;;;;;17.52;9.95;;;5.10;99.90;;;;;;5067684;28;20518;-50
2021/03/17 08:09:02;;;;;;;16.08;10.02;;;5.10;99.90;;;;;;5069420;28;20062;-49
2021/03/17 08:11:29;;;;;;;17.13;10.48;;;5.10;99.90;;;;;;5068202;28;20136;-52
2021/03/17 08:13:56;;;;;;;18.17;10.52;;;5.10;99.90;;;;;;5070128;28;20029;-53
2021/03/17 08:16:25;;;;;;;20.88;12.40;;;5.10;99.90;;;;;;5068841;28;20081;-53
2021/03/17 08:18:52;;;;;;;19.35;12.73;;;5.10;99.90;;;;;;5069859;28;20123;-51
2021/03/17 08:21:45;;;;;;;19.98;12.02;;;5.10;99.90;;;;;;5067693;28;20462;-50
2021/03/17 08:24:35;;;;;;;18.63;12.18;;;5.20;99.90;;;;;;5070039;28;20033;-51
2021/03/17 08:27:07;;;;;;;21.65;13.80;;;5.20;99.90;;;;;;5061026;28;20033;-50
2021/03/17 08:29:43;;;;;;;19.90;12.55;;;5.20;99.90;;;;;;5067384;28;20489;-50
2021/03/17 08:32:11;;;;;;;22.00;13.65;;;5.30;99.90;;;;;;5069167;28;20127;-54
2021/03/17 08:34:38;;;;;;;22.52;15.38;;;5.30;99.90;;;;;;5068602;28;20124;-54
2021/03/17 08:37:12;;;;;;;23.13;15.15;;;5.30;99.90;;;;;;5068907;28;20033;-50
2021/03/17 08:39:39;;;;;;;28.38;15.98;;;5.40;99.90;;;;;;5069000;28;20544;-53
2021/03/17 08:42:40;;;;;;;28.58;16.02;;;5.30;99.90;;;;;;5066907;28;20028;-51
2021/03/17 08:45:17;;;;;;;23.13;14.52;;;5.40;99.90;;;;;;5004460;28;20066;-50
2021/03/17 08:47:48;;;;;;;26.17;14.60;;;5.40;99.90;;;;;;5061545;28;20071;-52
2021/03/17 08:50:20;;;;;;;26.20;15.32;;;5.40;99.90;;;;;;5067137;28;20021;-55
2021/03/17 08:52:56;;;;;;;26.65;17.10;;;5.40;99.90;;;;;;5069512;28;20120;-50
2021/03/17 08:55:37;;;;;;;30.63;16.60;;;5.50;99.90;;;;;;5064432;28;20051;-55
2021/03/17 08:58:05;;;;;;;25.95;15.45;;;5.60;99.90;;;;;;5068486;28;20024;-50
2021/03/17 09:00:43;;;;;;;27.50;17.45;;;5.60;99.90;;;;;;5067977;28;20060;-55
2021/03/17 09:03:30;;;;;;;27.65;17.67;;;5.80;99.90;;;;;;5057797;28;20028;-52
2021/03/17 09:06:09;;;;;;;26.80;17.35;;;5.80;99.90;;;;;;5066513;28;20033;-52
2021/03/17 09:08:52;;;;;;;24.23;16.30;;;5.90;99.90;;;;;;5068247;28;20020;-54
2021/03/17 09:11:43;;;;;;;23.00;15.48;;;5.90;99.90;;;;;;5066574;28;20550;-52
2021/03/17 09:14:19;;;;;;;25.63;16.20;;;5.90;99.90;;;;;;5066548;28;20028;-52
2021/03/17 09:17:09;;;;;;;13.05;8.60;;;5.80;99.90;;;;;;5067011;28;20029;-53
2021/03/17 09:19:53;;;;;;;13.65;6.90;;;5.70;99.90;;;;;;5067327;28;20386;-54
2021/03/17 09:22:39;;;;;;;10.43;6.15;;;5.60;99.90;;;;;;5065249;28;20099;-55
2021/03/17 09:25:36;;;;;;;14.88;6.43;;;5.40;99.90;;;;;;5068676;28;20037;-51
2021/03/17 09:28:13;;;;;;;13.50;8.25;;;5.30;99.90;;;;;;5069697;28;20117;-52
2021/03/17 09:30:38;;;;;;;9.25;6.30;;;5.20;99.90;;;;;;5067328;28;20035;-52
2021/03/17 09:33:08;;;;;;;11.80;6.32;;;5.20;99.90;;;;;;5066878;28;20032;-54
2021/03/17 09:35:34;;;;;;;11.60;8.10;;;5.30;99.90;;;;;;5067362;28;20023;-56
2021/03/17 09:38:09;;;;;;;10.55;7.60;;;5.30;99.90;;;;;;5069496;28;20368;-52
2021/03/17 09:40:39;;;;;;;11.63;7.65;;;5.40;99.90;;;;;;5071330;28;20040;-53
2021/03/17 09:43:25;;;;;;;10.10;7.45;;;5.50;99.90;;;;;;5071928;28;20021;-52
2021/03/17 09:45:50;;;;;;;10.60;7.00;;;5.50;99.90;;;;;;5072578;28;20094;-52
2021/03/17 09:48:17;;;;;;;10.65;6.40;;;5.50;99.90;;;;;;5075036;28;20492;-50
2021/03/17 09:50:44;;;;;;;11.65;7.55;;;5.50;99.90;;;;;;5071643;28;20025;-51
2021/03/17 09:53:14;;;;;;;10.02;6.30;;;5.60;99.90;;;;;;5072652;28;20319;-50
2021/03/17 09:55:40;;;;;;;11.45;6.35;;;5.60;99.90;;;;;;5071978;28;20549;-53
2021/03/17 09:58:07;;;;;;;12.25;6.30;;;5.70;99.90;;;;;;5071627;28;20105;-50
2021/03/17 10:00:34;;;;;;;18.25;6.55;;;5.70;99.90;;;;;;5067714;28;20025;-56
2021/03/17 10:03:02;;;;;;;9.50;5.75;;;5.90;99.90;;;;;;5072978;28;20029;-50
2021/03/17 10:05:29;;;;;;;8.77;5.60;;;6.20;99.90;;;;;;5070579;28;20024;-50
2021/03/17 10:07:55;;;;;;;5.13;4.30;;;6.50;99.90;;;;;;5072720;28;20154;-52
2021/03/17 10:10:21;;;;;;;9.02;4.15;;;6.70;99.90;;;;;;5071208;28;20060;-52
2021/03/17 10:12:47;;;;;;;7.85;3.92;;;6.60;99.90;;;;;;5070632;28;20109;-55
2021/03/17 10:15:16;;;;;;;5.80;3.95;;;6.50;99.90;;;;;;5065024;28;20020;-53
2021/03/17 10:17:42;;;;;;;9.05;4.32;;;6.50;99.90;;;;;;5071791;28;20777;-55
2021/03/17 10:20:23;;;;;;;10.45;3.40;;;6.40;99.90;;;;;;5070882;28;20039;-55
2021/03/17 10:22:51;;;;;;;4.85;2.70;;;6.30;99.90;;;;;;5068699;28;20056;-53
2021/03/17 10:25:21;;;;;;;3.80;2.92;;;6.20;99.90;;;;;;5069614;28;20104;-53
2021/03/17 10:27:50;;;;;;;4.35;2.60;;;6.00;99.90;;;;;;5070996;28;20040;-50
2021/03/17 10:30:31;;;;;;;10.75;3.28;;;6.00;99.90;;;;;;5071698;28;20029;-55
2021/03/17 10:33:01;;;;;;;6.47;3.58;;;6.10;99.90;;;;;;5070091;28;20038;-53
2021/03/17 10:35:27;;;;;;;8.15;3.80;;;6.20;99.90;;;;;;5069274;28;20085;-56
2021/03/17 10:37:52;;;;;;;8.98;3.85;;;6.30;99.90;;;;;;5072116;28;20502;-53
2021/03/17 10:40:21;;;;;;;4.30;3.40;;;6.40;99.90;;;;;;5069643;28;20043;-53
2021/03/17 10:42:53;;;;;;;6.68;3.55;;;6.60;99.90;;;;;;5070591;28;20482;-54
2021/03/17 10:45:30;;;;;;;8.13;3.20;;;6.70;99.90;;;;;;5067651;28;20162;-52
2021/03/17 10:47:56;;;;;;;7.68;3.45;;;6.60;99.90;;;;;;5071176;28;20025;-52
2021/03/17 10:50:29;;;;;;;7.85;2.92;;;6.50;99.90;;;;;;5069199;28;20082;-52
2021/03/17 10:52:55;;;;;;;8.32;3.20;;;6.50;99.90;;;;;;5065246;28;20453;-55
2021/03/17 10:55:24;;;;;;;7.90;3.75;;;6.50;99.90;;;;;;5064785;28;21183;-52
2021/03/17 10:57:50;;;;;;;7.38;3.53;;;6.40;99.90;;;;;;5065118;28;20024;-52
2021/03/17 11:00:26;;;;;;;4.25;3.35;;;6.30;99.90;;;;;;5069121;28;20174;-52
2021/03/17 11:02:53;;;;;;;12.32;3.90;;;6.20;99.90;;;;;;5069488;28;20021;-56
2021/03/17 11:05:24;;;;;;;8.60;4.28;;;6.30;99.90;;;;;;5063585;28;20030;-52
2021/03/17 11:07:56;;;;;;;12.32;4.78;;;6.30;99.90;;;;;;5065549;28;20036;-55
2021/03/17 11:10:46;;;;;;;9.48;3.67;;;6.30;99.90;;;;;;5067916;28;20036;-53
2021/03/17 11:13:12;;;;;;;8.95;3.58;;;6.40;99.90;;;;;;5066637;28;20093;-55
2021/03/17 11:16:08;;;;;;;9.57;3.10;;;6.50;99.90;;;;;;5068995;28;20032;-54
2021/03/17 11:18:58;;;;;;;7.75;3.17;;;6.50;99.90;;;;;;5053290;28;20111;-55
2021/03/17 11:21:34;;;;;;;6.03;3.05;;;6.40;99.90;;;;;;5067169;28;20119;-55
2021/03/17 11:24:02;;;;;;;6.30;3.15;;;6.20;99.90;;;;;;5068672;28;20017;-54
2021/03/17 11:26:35;;;;;;;5.03;1.38;;;6.20;99.90;;;;;;5066694;28;20101;-54
2021/03/17 11:29:10;;;;;;;6.33;1.53;;;6.00;99.90;;;;;;5069050;28;20035;-53
2021/03/17 11:31:36;;;;;;;1.65;1.17;;;5.90;99.90;;;;;;5069971;28;20295;-52
2021/03/17 11:34:03;;;;;;;1.55;0.80;;;5.80;99.90;;;;;;5070507;28;20505;-52
2021/03/17 11:36:30;;;;;;;1.38;0.88;;;5.70;99.90;;;;;;5067856;28;20040;-52
2021/03/17 11:39:00;;;;;;;2.75;1.00;;;5.60;99.90;;;;;;5070017;28;20487;-53
2021/03/17 11:41:27;;;;;;;3.03;1.40;;;5.60;99.90;;;;;;5069846;28;20078;-54
2021/03/17 11:43:53;;;;;;;1.75;0.90;;;5.60;99.90;;;;;;5068812;28;20449;-53
2021/03/17 11:46:19;;;;;;;2.80;0.80;;;5.60;99.90;;;;;;5067879;28;20087;-54
2021/03/17 11:48:46;;;;;;;5.28;1.55;;;5.70;99.90;;;;;;5068849;28;20498;-54
2021/03/17 11:51:12;;;;;;;3.55;1.02;;;5.80;99.90;;;;;;5068733;28;20340;-54
2021/03/17 11:53:38;;;;;;;7.15;1.30;;;5.90;99.90;;;;;;5069875;28;20100;-51
2021/03/17 11:56:05;;;;;;;6.38;1.10;;;6.00;99.90;;;;;;5070108;28;20024;-53
2021/03/17 11:58:31;;;;;;;5.93;1.90;;;6.20;99.90;;;;;;5068155;28;20111;-52
2021/03/17 12:00:57;;;;;;;7.07;1.10;;;6.20;99.90;;;;;;5060755;28;20115;-53
2021/03/17 12:03:22;;;;;;;11.25;1.88;;;6.40;99.90;;;;;;5068446;28;20016;-53
2021/03/17 12:05:48;;;;;;;6.75;1.50;;;6.70;99.90;;;;;;5065601;28;20112;-51
2021/03/17 12:08:15;;;;;;;5.55;1.10;;;7.20;99.90;;;;;;5069745;28;20024;-54
2021/03/17 12:10:41;;;;;;;12.15;2.78;;;7.40;99.90;;;;;;5069534;28;20029;-54
2021/03/17 12:13:07;;;;;;;8.38;1.42;;;7.40;99.90;;;;;;5069837;28;20553;-55
2021/03/17 12:15:33;;;;;;;6.03;1.00;;;7.60;99.90;;;;;;5066666;28;20119;-54
2021/03/17 12:17:59;;;;;;;6.55;1.35;;;7.50;99.90;;;;;;5069622;28;20032;-51
2021/03/17 12:20:26;;;;;;;7.88;1.40;;;7.40;99.90;;;;;;5070267;28;20024;-52
2021/03/17 12:22:52;;;;;;;5.63;1.50;;;7.50;99.90;;;;;;5068745;28;20130;-54
2021/03/17 12:25:19;;;;;;;3.42;1.40;;;7.90;99.90;;;;;;5069259;28;20486;-51
2021/03/17 12:27:44;;;;;;;7.38;1.40;;;8.50;99.90;;;;;;5069904;28;20497;-53
2021/03/17 12:30:13;;;;;;;6.88;1.20;;;8.80;99.90;;;;;;5068507;28;20028;-54
2021/03/17 12:32:40;;;;;;;5.00;1.30;;;9.20;99.90;;;;;;5068412;28;20032;-51
2021/03/17 12:35:08;;;;;;;8.57;1.50;;;9.40;99.90;;;;;;5068891;28;20024;-55
2021/03/17 12:37:34;;;;;;;7.88;1.27;;;9.30;99.90;;;;;;5067386;28;20453;-54
2021/03/17 12:39:59;;;;;;;3.35;1.15;;;9.00;99.90;;;;;;5069428;28;20462;-51
2021/03/17 12:42:25;;;;;;;9.13;1.45;;;8.80;99.90;;;;;;5069783;28;20036;-52
2021/03/17 12:44:51;;;;;;;5.28;1.33;;;8.40;99.90;;;;;;5068311;28;20025;-54
2021/03/17 12:47:16;;;;;;;11.30;2.67;;;8.00;99.90;;;;;;5068551;28;20036;-53
2021/03/17 12:49:42;;;;;;;5.30;2.17;;;7.70;99.90;;;;;;5069405;28;20532;-50
2021/03/17 12:52:09;;;;;;;9.40;1.90;;;7.50;99.90;;;;;;5067626;28;20029;-54
2021/03/17 12:54:35;;;;;;;3.92;2.10;;;7.30;99.90;;;;;;5069817;28;20024;-55
2021/03/17 12:57:00;;;;;;;6.35;2.83;;;7.30;99.90;;;;;;5069426;28;20032;-54
2021/03/17 12:59:26;;;;;;;7.32;2.45;;;7.10;99.90;;;;;;5068926;28;20530;-53